MMTC

Francisco Sarabia International Airport

Torreón, Mexico
TAF MMTC 231725Z 2318/2418 06010KT P6SM SCT030 BKN200 FM240300 00000KT P6SM BKN200
Issued Valid From Valid To
Apr-23 @ 17:25 UTC
(5 hours ago)
Apr-23 @ 18:00 UTC
(5 hours ago)
Apr-24 @ 18:00 UTC
(in 19 hours)
Apr-23 @ 18:00 to Apr-24 @ 03:00
TAF MMTC 231725Z 2318/2418 06010KT P6SM SCT030 BKN200
Wind Visibility Clouds
60° at 10 knots Greater than 6 miles
  • Scattered at 3,000' AGL
  • Broken at 20,000' AGL
From Apr-24 @ 03:00 to Apr-24 @ 18:00
FM240300 00000KT P6SM BKN200
Visibility Clouds
Greater than 6 miles
  • Broken at 20,000' AGL
TAF MMTC 231725Z 2318/2418 06010KT P6SM SCT030 BKN200 FM240300 00000KT P6SM BKN200
Issued Apr-23 @ 17:25 UTC
(5 hours ago)
Valid From Apr-23 @ 18:00 UTC
(5 hours ago)
Valid To Apr-24 @ 18:00 UTC
(in 19 hours)
Apr-23 @ 18:00 - Apr-24 @ 03:00
Wind Visibility
60° at 10 knots Greater than 6 miles
Clouds
  • Scattered at 3,000' AGL
  • Broken at 20,000' AGL
From Apr-24 @ 03:00 - Apr-24 @ 18:00
Clouds
  • Broken at 20,000' AGL